Terminal Aerodrome Forecast
Issued by NWS

Current Version | Previous Version | Graphics & Text | Print | Product List | Glossary Off
Versions: 1 2 3 4 5 6 7 8 9 10 11 12 13 14 15 16 17 18 19 20 21 22 23 24 25 26

000
FTUS42 KILM 180122 AAA
TAFCRE
TAF AMD
KCRE 180122Z 1801/1824 03006KT 3SM BR OVC007
     FM180700 02005KT P6SM OVC010
      TEMPO 1807/1811 2SM BR
     FM181500 04010KT P6SM SCT250
     FM181800 09008KT P6SM SCT250=

USA.gov is the U.S. government's official web portal to all federal, state and local government web resources and services.